Time;durP1;ratioP1;P1;durP2;ratioP2;P2;SDS_P1;SDS_P2;PMS_P1;PMS_P2;Temp;Humidity;BMP_temperature;BMP_pressure;BME280_temperature;BME280_humidity;BME280_pressure;Samples;Min_cycle;Max_cycle;Signal;HPM_P1;HPM_P2
2022/05/12 00:00:20;;;;;;;6.47;4.07;;;;;;;18.47;100.00;98241.47;4371273;32;20430;-79
2022/05/12 00:03:04;;;;;;;7.25;3.35;;;;;;;18.54;100.00;98230.09;4359986;32;20062;-80
2022/05/12 00:05:31;;;;;;;4.90;3.53;;;;;;;18.12;100.00;98179.59;4358887;32;20075;-82
2022/05/12 00:07:57;;;;;;;7.40;4.80;;;;;;;18.44;100.00;98226.56;4370676;32;20044;-84
2022/05/12 00:10:25;;;;;;;6.78;4.03;;;;;;;18.15;100.00;98181.69;4356554;32;20049;-83
2022/05/12 00:12:53;;;;;;;6.20;4.10;;;;;;;18.14;100.00;98169.19;4357560;32;20384;-83
2022/05/12 00:15:26;;;;;;;6.37;4.07;;;;;;;18.43;100.00;98208.63;4372036;32;20494;-84
2022/05/12 00:17:53;;;;;;;7.28;4.18;;;;;;;18.20;100.00;98188.91;4372167;32;20365;-82
2022/05/12 00:20:22;;;;;;;6.93;3.87;;;;;;;18.36;100.00;98212.94;4369903;32;20110;-82
2022/05/12 00:22:48;;;;;;;7.97;4.47;;;;;;;18.39;100.00;98207.66;4371667;32;20065;-81
2022/05/12 00:25:19;;;;;;;12.32;4.47;;;;;;;18.07;100.00;98174.31;4371719;32;20047;-82
2022/05/12 00:27:46;;;;;;;3.62;3.33;;;;;;;18.17;100.00;98175.12;4371766;32;20069;-79
2022/05/12 00:30:13;;;;;;;5.07;3.97;;;;;;;18.19;100.00;98170.16;4355476;32;20057;-83
2022/05/12 00:32:42;;;;;;;6.97;3.60;;;;;;;18.15;100.00;98161.81;4368590;32;20415;-82
2022/05/12 00:35:11;;;;;;;4.35;3.72;;;;;;;18.10;100.00;98162.78;4371526;32;20085;-81
2022/05/12 00:37:45;;;;;;;4.03;3.40;;;;;;;18.15;100.00;98161.81;4370107;32;20043;-81
2022/05/12 00:40:14;;;;;;;10.25;3.33;;;;;;;18.10;100.00;98156.53;4371471;32;20751;-83
2022/05/12 00:42:53;;;;;;;4.05;3.65;;;;;;;18.10;100.00;98164.72;4371128;32;20036;-83
2022/05/12 00:45:20;;;;;;;6.15;3.15;;;;;;;18.22;100.00;98172.22;4371822;32;20043;-82
2022/05/12 00:47:46;;;;;;;6.85;3.47;;;;;;;18.11;100.00;98164.37;4369162;32;20339;-81
2022/05/12 00:50:13;;;;;;;11.82;4.07;;;;;;;18.23;100.00;98187.47;4371532;32;20084;-80
2022/05/12 00:52:41;;;;;;;6.95;3.50;;;;;;;18.22;100.00;98186.69;4371411;32;20043;-81
2022/05/12 00:55:12;;;;;;;4.20;3.42;;;;;;;17.95;100.00;98146.94;4376663;32;20036;-80
2022/05/12 00:57:43;;;;;;;6.80;3.90;;;;;;;18.24;100.00;98191.81;4374517;32;20118;-79
2022/05/12 01:00:12;;;;;;;5.10;4.55;;;;;;;18.01;100.00;98151.06;4372064;32;20052;-81
2022/05/12 01:02:41;;;;;;;10.52;3.75;;;;;;;18.24;100.00;98183.62;4372202;32;20039;-81
2022/05/12 01:05:08;;;;;;;5.35;3.22;;;;;;;17.90;100.00;98141.63;4358617;32;20060;-80
2022/05/12 01:07:36;;;;;;;8.68;3.53;;;;;;;18.12;100.00;98176.88;4356882;32;20411;-80
2022/05/12 01:10:04;;;;;;;4.53;3.45;;;;;;;17.88;100.00;98138.44;4371506;32;20047;-81
2022/05/12 01:12:32;;;;;;;11.07;4.12;;;;;;;17.85;100.00;98139.03;4371543;32;20035;-80
2022/05/12 01:14:59;;;;;;;6.55;3.53;;;;;;;18.01;100.00;98164.69;4371581;32;20036;-81
2022/05/12 01:17:25;;;;;;;10.23;4.07;;;;;;;17.88;100.00;98152.84;4371325;32;20047;-82
2022/05/12 01:19:52;;;;;;;10.70;3.58;;;;;;;17.95;100.00;98168.72;4370300;32;20083;-81
2022/05/12 01:22:45;;;;;;;8.60;3.92;;;;;;;17.96;100.00;98173.81;4371797;32;20061;-81
2022/05/12 01:25:15;;;;;;;5.78;3.65;;;;;;;17.94;100.00;98169.84;4369693;32;20090;-78
2022/05/12 01:27:42;;;;;;;18.25;3.97;;;;;;;17.96;100.00;98167.59;4357928;32;20086;-81
2022/05/12 01:30:12;;;;;;;12.77;3.75;;;;;;;17.65;100.00;98124.94;4371442;32;20197;-81
2022/05/12 01:32:39;;;;;;;12.88;4.18;;;;;;;17.78;100.00;98148.47;4358206;32;20434;-82
2022/05/12 01:35:07;;;;;;;6.78;3.97;;;;;;;17.78;100.00;98156.63;4356771;32;20077;-80
2022/05/12 01:37:39;;;;;;;7.35;3.95;;;;;;;17.82;100.00;98164.19;4370456;32;20319;-82
2022/05/12 01:40:06;;;;;;;4.12;3.83;;;;;;;17.84;100.00;98148.31;4369779;32;20090;-81
2022/05/12 01:42:39;;;;;;;7.18;3.60;;;;;;;17.83;100.00;98152.16;4371571;32;20073;-82
2022/05/12 01:45:08;;;;;;;7.97;4.25;;;;;;;17.84;100.00;98160.03;4357189;32;20353;-81
2022/05/12 01:47:36;;;;;;;4.60;4.20;;;;;;;17.84;100.00;98154.56;4370467;32;20040;-81
2022/05/12 01:50:04;;;;;;;5.47;3.78;;;;;;;17.59;100.00;98109.88;4371104;32;20059;-81
2022/05/12 01:52:31;;;;;;;5.22;3.58;;;;;;;17.90;100.00;98152.50;4358148;32;20465;-82
2022/05/12 01:54:57;;;;;;;6.93;3.45;;;;;;;17.88;100.00;98147.38;4369664;32;20416;-82
2022/05/12 01:57:24;;;;;;;6.90;3.62;;;;;;;17.68;100.00;98118.84;4356565;32;20043;-79
2022/05/12 01:59:50;;;;;;;8.40;3.65;;;;;;;17.86;100.00;98143.38;4373868;32;20091;-79
2022/05/12 02:02:17;;;;;;;5.78;4.12;;;;;;;17.63;100.00;98110.84;4360558;32;20024;-81
2022/05/12 02:04:44;;;;;;;4.53;3.35;;;;;;;17.83;100.00;98152.97;4373610;32;20047;-79
2022/05/12 02:07:10;;;;;;;4.62;3.35;;;;;;;17.81;100.00;98143.53;4372330;32;20073;-78
2022/05/12 02:09:36;;;;;;;5.05;3.62;;;;;;;17.56;100.00;98105.06;4372734;32;20069;-81
2022/05/12 02:12:03;;;;;;;7.65;4.15;;;;;;;17.70;100.00;98146.53;4373675;32;20048;-80
2022/05/12 02:14:30;;;;;;;5.82;3.75;;;;;;;17.70;100.00;98143.81;4360324;32;20028;-81
2022/05/12 02:16:57;;;;;;;4.75;4.00;;;;;;;17.63;100.00;98132.63;4373802;32;20035;-83
2022/05/12 02:19:24;;;;;;;4.40;2.92;;;;;;;17.21;100.00;98066.91;4372483;32;20047;-78
2022/05/12 02:21:50;;;;;;;4.10;3.53;;;;;;;17.38;100.00;98094.13;4373178;32;20051;-81
2022/05/12 02:24:16;;;;;;;9.35;3.67;;;;;;;17.62;100.00;98133.72;4373130;32;20032;-83
2022/05/12 02:26:43;;;;;;;7.75;3.65;;;;;;;17.34;100.00;98092.38;4373803;32;20052;-81
2022/05/12 02:29:09;;;;;;;6.93;3.42;;;;;;;17.58;100.00;98124.59;4372833;32;20036;-81
2022/05/12 02:31:36;;;;;;;6.50;3.33;;;;;;;17.52;100.00;98120.41;4371509;32;20416;-83
2022/05/12 02:34:03;;;;;;;7.03;2.95;;;;;;;17.49;100.00;98116.41;4360124;32;20044;-81
2022/05/12 02:36:29;;;;;;;8.07;3.70;;;;;;;17.51;100.00;98118.81;4373304;32;20036;-82
2022/05/12 02:38:55;;;;;;;4.80;3.58;;;;;;;17.49;100.00;98119.13;4373988;32;20364;-83
2022/05/12 02:41:22;;;;;;;9.60;3.53;;;;;;;17.38;100.00;98110.47;4372843;32;20096;-83
2022/05/12 02:43:49;;;;;;;5.87;3.62;;;;;;;17.48;100.00;98119.47;4373264;32;20035;-82
2022/05/12 02:46:16;;;;;;;11.82;3.47;;;;;;;17.32;100.00;98084.53;4373577;32;20049;-83
2022/05/12 02:48:45;;;;;;;5.57;3.30;;;;;;;17.43;100.00;98107.59;4359961;32;20471;-82
2022/05/12 02:51:12;;;;;;;5.57;3.10;;;;;;;17.45;100.00;98117.38;4374788;32;20061;-83
2022/05/12 02:53:39;;;;;;;7.90;3.12;;;;;;;17.50;100.00;98103.59;4371460;32;20061;-84
2022/05/12 02:56:08;;;;;;;11.90;3.40;;;;;;;17.82;100.00;98117.87;4373263;32;20059;-84
2022/05/12 02:58:34;;;;;;;7.90;2.92;;;;;;;17.89;100.00;98118.25;4359589;32;20054;-79
2022/05/12 03:01:01;;;;;;;3.70;3.15;;;;;;;17.78;100.00;98113.06;4373296;32;20437;-78
2022/05/12 03:03:28;;;;;;;4.00;3.17;;;;;;;17.78;100.00;98113.06;4369075;32;20450;-80
2022/05/12 03:05:55;;;;;;;10.15;2.97;;;;;;;17.49;100.00;98077.53;4372986;32;20931;-79
2022/05/12 03:08:21;;;;;;;5.70;3.05;;;;;;;17.53;100.00;98095.59;4359536;32;20032;-78
2022/05/12 03:10:51;;;;;;;3.42;2.97;;;;;;;17.54;100.00;98112.75;4373166;32;20393;-79
2022/05/12 03:13:17;;;;;;;7.95;4.32;;;;;;;17.34;100.00;98104.06;4372350;32;20038;-80
2022/05/12 03:15:44;;;;;;;7.47;3.72;;;;;;;17.26;100.00;98074.91;4371115;32;20053;-80
2022/05/12 03:18:11;;;;;;;3.92;3.22;;;;;;;17.24;100.00;98069.00;4373386;32;20451;-79
2022/05/12 03:20:37;;;;;;;5.07;3.12;;;;;;;17.56;100.00;98110.50;4371319;32;20028;-77
2022/05/12 03:23:04;;;;;;;15.77;3.30;;;;;;;17.51;100.00;98102.50;4372343;32;20059;-79
2022/05/12 03:25:31;;;;;;;7.00;3.78;;;;;;;17.51;100.00;98113.38;4369145;32;20435;-82
2022/05/12 03:27:59;;;;;;;8.18;3.33;;;;;;;17.38;100.00;98074.31;4371676;32;20073;-80
2022/05/12 03:30:26;;;;;;;6.87;3.22;;;;;;;17.64;100.00;98112.44;4372765;32;20036;-81
2022/05/12 03:32:52;;;;;;;5.12;2.67;;;;;;;17.49;100.00;98072.09;4358944;32;20043;-80
2022/05/12 03:35:19;;;;;;;11.52;3.10;;;;;;;17.69;100.00;98098.66;4371101;32;20508;-79
2022/05/12 03:37:46;;;;;;;5.30;3.37;;;;;;;17.83;100.00;98092.28;4369297;32;20040;-80
2022/05/12 03:40:17;;;;;;;5.32;3.00;;;;;;;17.67;100.00;98067.44;4358935;32;20048;-80
2022/05/12 03:42:44;;;;;;;9.02;3.25;;;;;;;17.64;100.00;98063.44;4372479;32;20035;-82
2022/05/12 03:45:11;;;;;;;5.32;3.17;;;;;;;17.86;100.00;98102.53;4371010;32;20054;-80
2022/05/12 03:47:40;;;;;;;8.48;2.60;;;;;;;17.77;100.00;98088.91;4370965;32;20741;-80
2022/05/12 03:50:11;;;;;;;5.72;3.37;;;;;;;17.79;100.00;98109.25;4371696;32;20036;-79
2022/05/12 03:52:38;;;;;;;3.33;2.85;;;;;;;17.62;100.00;98071.13;4359165;32;20440;-78
2022/05/12 03:55:08;;;;;;;3.78;3.03;;;;;;;17.57;100.00;98060.41;4371531;32;20043;-82
2022/05/12 03:57:35;;;;;;;5.72;3.22;;;;;;;17.66;100.00;98066.63;4372282;32;20066;-77
2022/05/12 04:00:18;;;;;;;12.63;3.12;;;;;;;17.87;100.00;98093.22;4359685;32;20043;-79
2022/05/12 04:02:46;;;;;;;9.43;2.87;;;;;;;17.91;100.00;98096.94;4372049;32;20065;-81
2022/05/12 04:05:13;;;;;;;8.05;3.15;;;;;;;17.95;100.00;98092.47;4365764;32;20159;-78
2022/05/12 04:07:42;;;;;;;12.43;3.72;;;;;;;17.69;100.00;98065.19;4358312;32;20052;-78
2022/05/12 04:10:10;;;;;;;5.85;2.92;;;;;;;17.79;100.00;98065.69;4365162;32;20141;-79
2022/05/12 04:12:37;;;;;;;6.47;3.30;;;;;;;17.99;100.00;98089.91;4357528;32;20059;-79
2022/05/12 04:15:04;;;;;;;6.80;3.55;;;;;;;17.98;100.00;98075.47;4369883;32;20039;-82
2022/05/12 04:17:31;;;;;;;12.63;3.10;;;;;;;18.17;100.00;98096.13;4370974;32;20051;-79
2022/05/12 04:20:02;;;;;;;5.32;2.97;;;;;;;18.14;100.00;98092.94;4371039;32;20065;-78
2022/05/12 04:22:28;;;;;;;3.25;2.67;;;;;;;18.14;100.00;98092.94;4372045;32;20061;-79
2022/05/12 04:24:55;;;;;;;2.70;2.50;;;;;;;18.17;100.00;98090.66;4361771;32;20408;-80
2022/05/12 04:27:22;;;;;;;5.03;2.75;;;;;;;18.03;100.00;98064.41;4350489;32;20136;-81
2022/05/12 04:29:48;;;;;;;8.80;2.65;;;;;;;18.17;100.00;98071.59;4364244;32;20052;-80
2022/05/12 04:32:15;;;;;;;7.47;2.50;;;;;;;18.26;100.00;98096.91;4356115;32;20032;-79
2022/05/12 04:37:31;;;;;;;10.38;2.80;;;;;;;18.33;100.00;98089.03;4371271;32;20102;-80
2022/05/12 04:40:08;;;;;;;2.90;2.70;;;;;;;18.32;100.00;98098.34;4357553;32;20061;-80
2022/05/12 04:42:34;;;;;;;5.93;3.08;;;;;;;18.40;100.00;98091.28;4355702;32;20024;-82
2022/05/12 04:45:03;;;;;;;7.32;3.08;;;;;;;18.39;100.00;98095.91;4361438;32;20054;-79
2022/05/12 04:47:29;;;;;;;2.95;2.75;;;;;;;18.19;100.00;98047.56;4350024;32;20035;-79
2022/05/12 04:49:56;;;;;;;7.37;2.92;;;;;;;18.39;100.00;98092.41;4355094;33;20036;-77
2022/05/12 04:52:23;;;;;;;4.57;3.53;;;;;;;18.26;100.00;98045.16;4363057;32;20061;-79
2022/05/12 04:54:49;;;;;;;7.65;2.65;;;;;;;18.25;100.00;98059.88;4353540;32;20048;-77
2022/05/12 04:57:16;;;;;;;6.07;3.28;;;;;;;18.25;100.00;98046.25;4369585;32;20060;-78
2022/05/12 04:59:42;;;;;;;8.68;3.40;;;;;;;18.36;100.00;98055.69;4372918;32;20047;-79
2022/05/12 05:02:09;;;;;;;6.12;2.42;;;;;;;18.37;100.00;98054.56;4359389;32;20660;-78
2022/05/12 05:04:35;;;;;;;21.95;3.67;;;;;;;18.39;100.00;98055.03;4372910;32;20040;-79
2022/05/12 05:07:02;;;;;;;18.73;3.40;;;;;;;18.69;100.00;98074.19;4349349;33;20087;-78
2022/05/12 05:09:28;;;;;;;3.55;2.55;;;;;;;18.77;100.00;98081.53;4362376;32;20031;-77
2022/05/12 05:11:55;;;;;;;16.20;3.42;;;;;;;18.74;100.00;98092.31;4364838;32;20042;-77
2022/05/12 05:14:21;;;;;;;2.47;2.28;;;;;;;18.82;100.00;98078.63;4364791;32;20079;-83
2022/05/12 05:16:48;;;;;;;9.93;2.80;;;;;;;18.64;100.00;98047.91;4357962;32;20330;-77
2022/05/12 05:19:21;;;;;;;5.93;3.00;;;;;;;18.88;100.00;98077.34;4371285;32;20043;-78
2022/05/12 05:21:48;;;;;;;4.37;3.17;;;;;;;18.98;100.00;98080.84;4371273;32;20408;-80
2022/05/12 05:24:14;;;;;;;14.82;2.45;;;;;;;19.01;100.00;98086.44;4368649;32;20416;-79
2022/05/12 05:26:41;;;;;;;13.62;3.08;;;;;;;19.08;100.00;98094.09;4371386;32;20051;-80
2022/05/12 05:29:07;;;;;;;12.05;2.83;;;;;;;19.05;100.00;98081.09;4368825;32;20066;-79
2022/05/12 05:31:37;;;;;;;6.15;3.22;;;;;;;19.00;100.00;98067.66;4366053;32;20079;-78
2022/05/12 05:34:03;;;;;;;5.72;2.72;;;;;;;19.24;100.00;98095.16;4366388;32;20044;-80
2022/05/12 05:36:30;;;;;;;7.97;3.17;;;;;;;19.33;100.00;98105.22;4362914;32;20048;-78
2022/05/12 05:38:57;;;;;;;10.40;3.15;;;;;;;19.45;100.00;98113.50;4358639;32;20362;-77
2022/05/12 05:41:24;;;;;;;22.65;3.05;;;;;;;19.50;100.00;98102.38;4360269;32;20125;-79
2022/05/12 05:43:50;;;;;;;4.20;3.10;;;;;;;19.34;100.00;98041.31;4371588;32;20043;-76
2022/05/12 05:46:17;;;;;;;9.55;2.72;;;;;;;19.73;100.00;98110.25;4354562;32;20061;-83
2022/05/12 05:48:43;;;;;;;10.27;3.30;;;;;;;19.59;100.00;98077.72;4363077;32;20085;-78
2022/05/12 05:53:55;;;;;;;25.92;3.30;;;;;;;20.02;100.00;98089.47;4372108;32;20047;-78
2022/05/12 05:56:21;;;;;;;6.10;2.70;;;;;;;20.17;100.00;98094.31;4357727;32;20101;-81
2022/05/12 05:58:48;;;;;;;22.85;4.18;;;;;;;20.29;100.00;98099.03;4360166;32;20035;-79
2022/05/12 06:01:16;;;;;;;13.07;3.03;;;;;;;20.41;100.00;98106.47;4372335;32;20049;-79
2022/05/12 06:03:43;;;;;;;12.25;3.22;;;;;;;20.26;100.00;98073.19;4360111;32;20125;-79
2022/05/12 06:06:09;;;;;;;9.05;2.60;;;;;;;20.57;100.00;98115.62;4370816;32;20032;-79
2022/05/12 06:08:35;;;;;;;5.12;2.17;;;;;;;20.77;100.00;98113.19;4372957;32;20071;-75
2022/05/12 06:11:05;;;;;;;6.10;2.28;;;;;;;20.60;100.00;98095.81;4367545;32;20069;-76
2022/05/12 06:13:33;;;;;;;12.40;2.60;;;;;;;20.92;100.00;98136.34;4365484;32;20111;-75
2022/05/12 06:16:01;;;;;;;26.02;3.17;;;;;;;21.07;100.00;98148.56;4358403;32;20035;-81
2022/05/12 06:18:28;;;;;;;27.37;2.92;;;;;;;20.89;100.00;98099.53;4351910;32;20053;-75
2022/05/12 06:20:54;;;;;;;4.32;2.97;;;;;;;21.19;100.00;98145.84;4372837;32;20158;-75
2022/05/12 06:23:20;;;;;;;18.73;2.65;;;;;;;21.30;100.00;98141.53;4371423;32;20043;-74
2022/05/12 06:25:47;;;;;;;5.05;2.35;;;;;;;21.34;100.00;98126.00;4373122;32;20459;-75
2022/05/12 06:28:13;;;;;;;25.25;3.15;;;;;;;21.19;100.00;98127.47;4372453;32;20044;-74
2022/05/12 06:30:40;;;;;;;8.13;2.83;;;;;;;21.42;100.00;98137.97;4372634;32;20061;-76
2022/05/12 06:33:14;;;;;;;8.38;2.70;;;;;;;21.47;100.00;98156.09;4372885;32;20598;-75
2022/05/12 06:35:40;;;;;;;16.85;3.22;;;;;;;21.59;100.00;98128.75;4344767;32;20028;-75
2022/05/12 06:38:07;;;;;;;20.15;3.03;;;;;;;21.66;100.00;98161.81;4357066;32;20051;-85
2022/05/12 06:40:34;;;;;;;12.65;2.12;;;;;;;21.55;100.00;98106.72;4367070;32;20077;-75
2022/05/12 06:43:05;;;;;;;12.40;2.97;;;;;;;21.79;100.00;98134.41;4372445;32;20405;-77
2022/05/12 06:45:32;;;;;;;12.15;2.45;;;;;;;21.86;99.57;98134.59;4372526;32;20095;-74
2022/05/12 06:48:05;;;;;;;15.80;2.40;;;;;;;21.99;99.80;98154.59;4371014;32;20092;-82
2022/05/12 06:50:32;;;;;;;14.45;2.80;;;;;;;22.07;97.48;98140.72;4357489;32;20066;-76
2022/05/12 06:52:58;;;;;;;17.50;3.50;;;;;;;22.03;97.97;98169.97;4371796;32;20027;-76
2022/05/12 06:55:27;;;;;;;40.30;4.50;;;;;;;21.99;98.10;98095.09;4371944;32;20079;-75
2022/05/12 06:57:55;;;;;;;29.58;4.28;;;;;;;22.32;94.58;98157.09;4371169;32;20056;-75
2022/05/12 07:00:22;;;;;;;39.08;4.60;;;;;;;21.90;93.04;98130.03;4369778;32;20433;-75
2022/05/12 07:02:49;;;;;;;36.10;3.15;;;;;;;22.24;92.84;98226.56;4371974;32;20051;-74
2022/05/12 07:05:20;;;;;;;28.10;4.72;;;;;;;22.00;92.23;98221.94;4359585;32;20027;-76
2022/05/12 07:07:46;;;;;;;32.95;3.55;;;;;;;21.99;92.94;98166.34;4372445;32;20027;-79
2022/05/12 07:10:14;;;;;;;29.33;4.28;;;;;;;22.28;93.28;98197.31;4369708;32;20047;-75
2022/05/12 07:12:41;;;;;;;20.33;3.75;;;;;;;22.15;93.82;98177.38;4372424;32;20066;-76
2022/05/12 07:15:09;;;;;;;19.65;2.87;;;;;;;22.21;94.18;98199.84;4372417;32;20400;-74
2022/05/12 07:17:38;;;;;;;31.40;3.62;;;;;;;21.81;94.78;98175.94;4372230;32;20089;-75
2022/05/12 07:28:22;;;;;;;20.45;3.15;;;;;;;21.86;98.07;98178.44;4371622;32;20094;-74
2022/05/12 07:31:03;;;;;;;20.40;2.53;;;;;;;22.14;97.21;98239.59;4371428;32;20384;-76
2022/05/12 07:33:31;;;;;;;;;;;;;;;22.13;97.45;98227.06;4358331;32;20454;-74
2022/05/12 07:36:00;;;;;;;18.40;3.33;;;;;;;22.07;98.45;98253.09;4358742;32;19997;-74
2022/05/12 07:38:26;;;;;;;19.12;2.90;;;;;;;22.18;98.01;98238.91;4371572;32;20082;-74
2022/05/12 07:40:53;;;;;;;9.90;2.90;;;;;;;22.14;98.47;98253.31;4370333;32;20081;-82
2022/05/12 07:43:20;;;;;;;13.30;2.78;;;;;;;21.88;99.77;98258.38;4371727;32;20390;-74
2022/05/12 07:45:48;;;;;;;19.12;3.47;;;;;;;21.64;100.00;98270.94;4371065;32;20039;-74
2022/05/12 07:48:15;;;;;;;8.80;2.65;;;;;;;21.65;100.00;98225.97;4370235;32;20051;-74
2022/05/12 07:50:41;;;;;;;15.40;4.22;;;;;;;21.33;100.00;98255.00;4371108;32;20268;-74
2022/05/12 07:53:09;;;;;;;9.93;2.95;;;;;;;21.41;100.00;98268.63;4354578;32;20024;-74
2022/05/12 07:55:36;;;;;;;19.85;4.78;;;;;;;21.33;100.00;98280.47;4368792;32;20453;-76
2022/05/12 07:58:04;;;;;;;11.50;4.28;;;;;;;21.35;100.00;98239.84;4371128;32;20086;-74
2022/05/12 08:00:32;;;;;;;8.45;4.10;;;;;;;21.61;100.00;98315.44;4369937;32;20053;-75
2022/05/12 08:03:00;;;;;;;14.77;3.30;;;;;;;21.56;100.00;98288.28;4368444;32;20031;-74
2022/05/12 08:05:26;;;;;;;17.15;3.15;;;;;;;21.68;100.00;98292.97;4371947;32;20941;-74
2022/05/12 08:07:52;;;;;;;18.08;4.03;;;;;;;21.48;100.00;98300.13;4369880;32;20097;-82
2022/05/12 08:10:19;;;;;;;10.35;3.25;;;;;;;21.08;100.00;98256.88;4370715;32;20039;-80
2022/05/12 08:12:46;;;;;;;12.88;3.72;;;;;;;21.15;100.00;98303.69;4370026;32;20034;-83
2022/05/12 08:15:13;;;;;;;13.20;3.85;;;;;;;20.95;100.00;98360.84;4370764;32;20094;-80
2022/05/12 08:17:40;;;;;;;17.95;4.07;;;;;;;20.64;100.00;98312.81;4371991;32;20068;-83
2022/05/12 08:20:09;;;;;;;13.32;3.65;;;;;;;20.82;100.00;98345.50;4370145;32;20035;-79
2022/05/12 08:22:35;;;;;;;8.63;3.53;;;;;;;20.83;100.00;98352.56;4368887;32;20433;-80
2022/05/12 08:25:04;;;;;;;8.27;4.30;;;;;;;20.64;100.00;98351.09;4369673;32;20083;-82
2022/05/12 08:27:31;;;;;;;28.40;3.50;;;;;;;20.45;100.00;98358.94;4371954;32;20091;-78
2022/05/12 08:29:57;;;;;;;10.25;3.10;;;;;;;20.52;100.00;98353.75;4371414;32;20415;-78
2022/05/12 08:32:24;;;;;;;12.25;3.55;;;;;;;20.49;100.00;98365.34;4371958;32;20084;-78
2022/05/12 08:34:51;;;;;;;10.50;3.35;;;;;;;20.54;100.00;98362.41;4369189;32;20065;-80
2022/05/12 08:37:18;;;;;;;4.78;3.12;;;;;;;20.53;100.00;98371.72;4368958;32;20043;-78
2022/05/12 08:39:46;;;;;;;9.18;3.17;;;;;;;20.29;100.00;98364.16;4369711;32;20374;-78
2022/05/12 08:42:26;;;;;;;5.03;3.30;;;;;;;20.21;100.00;98349.41;4357263;32;20024;-78
2022/05/12 08:44:55;;;;;;;16.58;4.87;;;;;;;20.37;100.00;98396.12;4369574;32;20456;-82
2022/05/12 08:47:42;;;;;;;10.07;2.65;;;;;;;20.23;100.00;98401.84;4370011;32;20065;-78
2022/05/12 08:50:18;;;;;;;4.80;2.53;;;;;;;20.32;100.00;98421.72;4369881;32;20051;-78
2022/05/12 08:53:01;;;;;;;6.93;2.70;;;;;;;20.18;100.00;98415.66;4369783;32;20404;-80
2022/05/12 08:55:30;;;;;;;11.20;2.50;;;;;;;20.04;100.00;98409.63;4368773;32;20028;-78
2022/05/12 08:58:01;;;;;;;12.88;3.30;;;;;;;20.10;100.00;98454.75;4371501;32;20053;-83
2022/05/12 09:00:34;;;;;;;18.15;2.80;;;;;;;19.70;100.00;98405.84;4369624;32;20028;-83
2022/05/12 09:03:24;;;;;;;17.33;2.70;;;;;;;19.80;100.00;98416.47;4371219;32;20039;-82
2022/05/12 09:06:26;;;;;;;13.90;2.28;;;;;;;20.05;100.00;98427.62;4370906;32;20059;-82
2022/05/12 09:09:11;;;;;;;5.43;2.05;;;;;;;20.21;100.00;98464.22;4356779;32;20066;-80
2022/05/12 09:11:54;;;;;;;18.60;1.58;;;;;;;20.01;100.00;98415.72;4375135;32;20052;-81
2022/05/12 09:14:31;;;;;;;12.37;1.50;;;;;;;19.91;100.00;98427.81;4377537;32;20061;-80
2022/05/12 09:16:59;;;;;;;13.55;1.42;;;;;;;20.08;100.00;98457.03;4377031;32;20046;-80
2022/05/12 09:19:27;;;;;;;13.98;1.48;;;;;;;20.46;100.00;98437.09;4374301;32;20066;-80
2022/05/12 09:21:55;;;;;;;5.57;1.50;;;;;;;20.35;100.00;98435.88;4373500;32;20069;-80
2022/05/12 09:24:21;;;;;;;3.60;1.10;;;;;;;20.29;100.00;98455.16;4371475;32;20044;-84
2022/05/12 09:26:51;;;;;;;17.60;2.00;;;;;;;20.01;100.00;98470.38;4374339;32;20073;-81
2022/05/12 09:29:25;;;;;;;7.93;1.42;;;;;;;20.25;100.00;98492.50;4374966;32;20382;-81
2022/05/12 09:32:04;;;;;;;18.48;1.50;;;;;;;20.33;100.00;98477.19;4374191;32;20157;-81
2022/05/12 09:34:31;;;;;;;5.20;1.20;;;;;;;20.28;100.00;98488.31;4374019;32;20047;-80
2022/05/12 09:37:15;;;;;;;23.70;1.33;;;;;;;19.98;100.00;98542.09;4374337;32;20047;-79
2022/05/12 09:39:49;;;;;;;13.62;1.55;;;;;;;19.94;100.00;98492.75;4370873;32;20101;-83
2022/05/12 09:42:28;;;;;;;25.92;4.20;;;;;;;19.81;100.00;98467.22;4359662;32;20052;-80
2022/05/12 09:45:03;;;;;;;9.65;1.50;;;;;;;19.83;100.00;98527.78;4360586;32;20061;-79
2022/05/12 09:47:31;;;;;;;7.18;1.37;;;;;;;19.69;100.00;98519.75;4371492;32;20087;-80
2022/05/12 09:50:25;;;;;;;8.32;1.58;;;;;;;19.83;100.00;98522.31;4372908;32;20043;-80
2022/05/12 09:52:57;;;;;;;19.85;1.37;;;;;;;19.73;100.00;98539.81;4372314;32;20087;-81
2022/05/12 09:55:36;;;;;;;19.95;1.50;;;;;;;19.51;100.00;98546.25;4372808;32;20123;-80
2022/05/12 09:58:15;;;;;;;9.52;1.27;;;;;;;19.45;100.00;98519.41;4373189;32;20080;-79
2022/05/12 10:00:50;;;;;;;12.32;2.22;;;;;;;19.59;100.00;98537.28;4370673;32;20079;-81
2022/05/12 10:09:30;;;;;;;16.52;1.75;;;;;;;19.55;100.00;98541.75;4370464;32;20035;-79
2022/05/12 10:12:02;;;;;;;7.45;1.25;;;;;;;19.57;100.00;98539.50;4372801;32;20488;-80
2022/05/12 10:14:33;;;;;;;13.30;1.60;;;;;;;19.44;100.00;98506.91;4371793;32;20323;-76
2022/05/12 10:17:05;;;;;;;19.50;2.15;;;;;;;19.63;100.00;98521.03;4371840;32;20057;-76
2022/05/12 10:19:34;;;;;;;5.62;1.70;;;;;;;19.94;100.00;98509.94;4372597;32;20098;-74
2022/05/12 10:22:18;;;;;;;2.62;1.10;;;;;;;20.10;100.00;98553.16;4373356;32;20039;-75
2022/05/12 10:25:03;;;;;;;14.13;1.65;;;;;;;20.31;100.00;98540.41;4371942;32;20143;-74
2022/05/12 10:27:46;;;;;;;12.05;1.37;;;;;;;20.15;100.00;98539.31;4359976;32;20043;-77
2022/05/12 10:30:34;;;;;;;11.25;1.33;;;;;;;19.83;100.00;98525.06;4373217;32;20047;-75
2022/05/12 10:33:00;;;;;;;15.05;1.20;;;;;;;19.88;100.00;98598.66;4371947;32;20047;-75
2022/05/12 10:35:39;;;;;;;12.60;1.67;;;;;;;19.60;100.00;98588.00;4372995;32;20047;-74
2022/05/12 10:38:42;;;;;;;15.63;3.10;;;;;;;19.54;100.00;98592.00;4358940;32;20151;-76
2022/05/12 10:41:18;;;;;;;12.73;1.27;;;;;;;19.41;100.00;98606.63;4331524;32;20036;-74
2022/05/12 10:44:22;;;;;;;18.60;1.67;;;;;;;19.73;100.00;98549.94;4369812;32;20378;-74
2022/05/12 10:47:04;;;;;;;9.95;1.27;;;;;;;20.11;100.00;98552.81;4373459;32;20052;-74
2022/05/12 10:50:05;;;;;;;13.07;1.50;;;;;;;20.09;99.45;98529.69;4372791;32;20048;-75
2022/05/12 10:52:57;;;;;;;16.30;2.35;;;;;;;20.33;100.00;98614.69;4371450;32;20467;-77
2022/05/12 10:55:53;;;;;;;14.70;1.45;;;;;;;19.82;100.00;98599.16;4372846;32;20077;-75
2022/05/12 10:58:29;;;;;;;9.30;1.30;;;;;;;19.47;100.00;98567.13;4373068;32;20070;-75
2022/05/12 11:01:11;;;;;;;26.08;1.98;;;;;;;19.78;98.71;98637.22;4371829;32;20369;-74
2022/05/12 11:04:21;;;;;;;25.02;2.00;;;;;;;20.45;94.27;98615.94;4356906;32;20114;-76
2022/05/12 11:07:06;;;;;;;8.77;1.58;;;;;;;20.14;89.16;98616.97;4371884;32;20062;-79
2022/05/12 11:09:39;;;;;;;14.45;3.22;;;;;;;20.37;89.09;98625.75;4370623;32;20077;-74
2022/05/12 11:12:40;;;;;;;22.35;1.33;;;;;;;20.64;77.69;98575.37;4370986;32;20040;-73
2022/05/12 11:15:16;;;;;;;30.65;1.52;;;;;;;20.05;74.14;98629.84;4352800;32;20471;-74
2022/05/12 11:17:51;;;;;;;21.55;2.17;;;;;;;19.89;75.29;98629.50;4372163;32;20108;-74
2022/05/12 11:20:27;;;;;;;30.00;1.95;;;;;;;19.69;66.31;98620.81;4369602;32;20047;-74
2022/05/12 11:23:35;;;;;;;19.77;2.37;;;;;;;20.13;64.43;98635.28;4372114;32;20392;-74
2022/05/12 11:26:23;;;;;;;27.70;1.95;;;;;;;20.78;58.96;98661.91;4358415;32;20047;-74
2022/05/12 11:32:15;;;;;;;27.40;3.78;;;;;;;20.86;56.19;98639.19;4371481;32;20048;-75
2022/05/12 11:34:46;;;;;;;15.63;1.98;;;;;;;20.73;50.16;98664.84;4347473;32;20035;-75
2022/05/12 11:37:27;;;;;;;21.70;2.08;;;;;;;20.02;44.85;98614.06;4371543;32;20071;-75
2022/05/12 11:39:56;;;;;;;26.62;3.17;;;;;;;20.73;45.68;98643.75;4358126;32;20384;-75
2022/05/12 11:44:23;;;;;;;33.60;1.55;;;;;;;20.35;43.93;98621.78;4370990;32;20237;-76
2022/05/12 11:45:41;;;;;;;25.98;1.42;;;;;;;20.07;41.87;98586.59;4372163;32;20043;-74
2022/05/12 11:48:20;;;;;;;45.35;3.20;;;;;;;20.58;37.91;98669.66;4370938;32;20055;-74
2022/05/12 11:50:58;;;;;;;26.67;2.60;;;;;;;21.16;38.38;98639.25;4370377;32;20094;-73
2022/05/12 11:53:27;;;;;;;23.10;2.10;;;;;;;21.12;36.64;98654.69;4369596;32;20396;-76
2022/05/12 11:55:56;;;;;;;21.85;2.17;;;;;;;20.86;37.24;98641.94;4371413;32;20051;-74
2022/05/12 11:58:30;;;;;;;36.25;2.12;;;;;;;21.29;37.94;98670.25;4371529;32;20106;-74
2022/05/12 12:00:59;;;;;;;20.37;1.80;;;;;;;21.71;38.17;98686.78;4371298;32;20069;-77